Terminal Aerodrome Forecast
Issued by NWS

Home | Current Version | Previous Version | Graphics & Text | Print | Product List | Glossary On
Versions: 1 2 3 4 5 6 7 8 9 10 11 12 13 14 15 16 17 18
579
FTUS43 KBIS 071731
TAFMOT
TAF
KMOT 071731Z 0718/0818 30032G45KT 6SM BLSN BKN020 OVC040
      TEMPO 0718/0719 2SM -SN BLSN
     FM080100 30029G40KT P6SM BKN035
     FM080700 31026G36KT P6SM BKN015
     FM081300 31020G28KT P6SM BKN020=

USA.gov is the U.S. government's official web portal to all federal, state and local government web resources and services.